createdAt,value
2018-08-04T00:00:28.937Z,9.07
2018-08-04T00:03:09.679Z,9.87
2018-08-04T00:05:50.469Z,9.50
2018-08-04T00:08:31.260Z,7.83
2018-08-04T00:11:12.079Z,9.10
2018-08-04T00:13:53.554Z,8.93
2018-08-04T00:16:34.379Z,9.30
2018-08-04T00:19:15.106Z,9.40
2018-08-04T00:21:55.880Z,9.10
2018-08-04T00:24:36.594Z,9.20
2018-08-04T00:27:17.543Z,8.57
2018-08-04T00:29:58.214Z,8.90
2018-08-04T00:32:39.396Z,8.73
2018-08-04T00:35:20.097Z,8.43
2018-08-04T00:38:00.917Z,9.17
2018-08-04T00:40:41.649Z,8.70
2018-08-04T00:43:22.619Z,8.53
2018-08-04T00:46:03.277Z,8.23
2018-08-04T00:48:44.146Z,9.20
2018-08-04T00:51:24.814Z,9.40
2018-08-04T00:54:05.385Z,8.63
2018-08-04T00:56:47.102Z,9.50
2018-08-04T00:59:28.291Z,8.63
2018-08-04T01:02:08.864Z,9.40
2018-08-04T01:04:50.295Z,9.90
2018-08-04T01:07:30.975Z,9.10
2018-08-04T01:10:11.586Z,9.70
2018-08-04T01:12:52.280Z,9.50
2018-08-04T01:15:33.050Z,8.60
2018-08-04T01:18:14.177Z,8.87
2018-08-04T01:20:54.970Z,8.93
2018-08-04T01:23:35.921Z,10.20
2018-08-04T01:26:16.776Z,10.13
2018-08-04T01:28:58.317Z,9.70
2018-08-04T01:31:38.873Z,9.90
2018-08-04T01:34:19.849Z,9.20
2018-08-04T01:37:00.814Z,9.80
2018-08-04T01:39:42.060Z,9.37
2018-08-04T01:42:23.090Z,9.57
2018-08-04T01:45:03.649Z,8.80
2018-08-04T01:47:44.423Z,9.37
2018-08-04T01:50:26.068Z,9.60
2018-08-04T01:53:06.800Z,9.10
2018-08-04T01:55:47.552Z,8.50
2018-08-04T01:58:28.606Z,9.53
2018-08-04T02:01:10.231Z,9.80
2018-08-04T02:03:50.840Z,10.30
2018-08-04T02:06:31.617Z,9.53
2018-08-04T02:09:13.318Z,9.77
2018-08-04T02:11:56.199Z,9.70
2018-08-04T02:14:36.854Z,9.80
2018-08-04T02:17:17.569Z,9.13
2018-08-04T02:19:58.721Z,10.63
2018-08-04T02:22:39.325Z,9.00
2018-08-04T02:25:20.087Z,12.57
2018-08-04T02:28:00.741Z,11.77
2018-08-04T02:30:42.153Z,9.40
2018-08-04T02:33:23.069Z,10.10
2018-08-04T02:36:03.892Z,9.60
2018-08-04T02:38:44.510Z,13.17
2018-08-04T02:41:25.207Z,13.73
2018-08-04T02:44:05.844Z,13.07
2018-08-04T02:46:47.268Z,14.13
2018-08-04T02:49:28.134Z,12.97
2018-08-04T02:52:08.849Z,13.53
2018-08-04T02:54:51.250Z,11.47
2018-08-04T02:57:32.013Z,12.50
2018-08-04T03:00:12.754Z,12.60
2018-08-04T03:02:53.563Z,12.13
2018-08-04T03:05:34.342Z,11.43
2018-08-04T03:08:16.549Z,11.83
2018-08-04T03:10:57.593Z,12.00
2018-08-04T03:13:38.461Z,10.63
2018-08-04T03:16:19.229Z,13.07
2018-08-04T03:19:01.374Z,13.03
2018-08-04T03:21:42.532Z,12.00
2018-08-04T03:24:23.313Z,11.93
2018-08-04T03:27:04.461Z,10.27
2018-08-04T03:29:45.157Z,10.70
2018-08-04T03:32:26.288Z,11.47
2018-08-04T03:35:07.073Z,9.77
2018-08-04T03:37:47.898Z,9.70
2018-08-04T03:40:29.416Z,9.60
2018-08-04T03:43:10.320Z,10.40
2018-08-04T03:45:50.951Z,9.27
2018-08-04T03:48:32.521Z,11.50
2018-08-04T03:51:15.254Z,11.70
2018-08-04T03:53:57.420Z,12.00
2018-08-04T03:56:39.754Z,13.53
2018-08-04T03:59:22.409Z,11.93
2018-08-04T04:02:05.838Z,11.93
2018-08-04T04:04:46.813Z,9.80
2018-08-04T04:07:28.627Z,9.53
2018-08-04T04:10:11.353Z,10.27
2018-08-04T04:12:53.369Z,10.43
2018-08-04T04:15:36.530Z,12.30
2018-08-04T04:18:18.927Z,12.03
2018-08-04T04:21:01.586Z,11.07
2018-08-04T04:23:43.246Z,11.90
2018-08-04T04:26:26.385Z,12.30
2018-08-04T04:29:08.548Z,12.60
2018-08-04T04:31:50.429Z,11.87
2018-08-04T04:34:32.390Z,12.37
2018-08-04T04:37:14.205Z,13.10
2018-08-04T04:39:55.556Z,13.90
2018-08-04T04:42:36.861Z,12.97
2018-08-04T04:45:18.326Z,13.17
2018-08-04T04:51:12.697Z,13.33
2018-08-04T04:53:54.244Z,13.53
2018-08-04T04:56:35.781Z,11.93
2018-08-04T04:59:18.367Z,13.73
2018-08-04T05:02:00.447Z,13.17
2018-08-04T05:04:42.183Z,11.73
2018-08-04T05:07:23.153Z,13.50
2018-08-04T05:10:05.240Z,11.90
2018-08-04T05:12:46.585Z,11.70
2018-08-04T05:15:27.384Z,12.97
2018-08-04T05:18:08.920Z,12.60
2018-08-04T05:20:51.387Z,13.20
2018-08-04T05:23:33.227Z,13.00
2018-08-04T05:26:14.989Z,12.10
2018-08-04T05:28:56.743Z,11.83
2018-08-04T05:31:39.120Z,10.97
2018-08-04T05:34:21.621Z,11.27
2018-08-04T05:37:03.602Z,10.90
2018-08-04T05:39:45.702Z,12.37
2018-08-04T05:42:27.092Z,11.10
2018-08-04T05:45:10.473Z,12.20
2018-08-04T05:47:52.195Z,12.53
2018-08-04T05:50:34.557Z,10.90
2018-08-04T05:53:16.348Z,9.80
2018-08-04T05:55:58.312Z,13.43
2018-08-04T05:58:40.669Z,11.93
2018-08-04T06:01:22.573Z,12.33
2018-08-04T06:04:04.305Z,12.30
2018-08-04T06:06:46.704Z,11.23
2018-08-04T06:09:27.838Z,10.40
2018-08-04T06:12:10.213Z,9.93
2018-08-04T06:14:52.150Z,10.70
2018-08-04T06:17:34.266Z,7.13
2018-08-04T06:20:17.934Z,11.30
2018-08-04T06:22:59.050Z,11.30
2018-08-04T06:25:40.073Z,10.60
2018-08-04T06:28:21.810Z,10.27
2018-08-04T06:31:03.070Z,9.63
2018-08-04T06:33:45.396Z,10.10
2018-08-04T06:36:26.940Z,10.70
2018-08-04T06:39:08.700Z,6.80
2018-08-04T06:41:50.183Z,11.03
2018-08-04T06:44:32.192Z,6.90
2018-08-04T06:47:13.861Z,10.93
2018-08-04T06:49:55.904Z,9.37
2018-08-04T06:52:37.078Z,9.90
2018-08-04T06:55:19.656Z,8.23
2018-08-04T06:58:02.363Z,6.40
2018-08-04T07:00:44.368Z,6.80
2018-08-04T07:03:26.472Z,7.10
2018-08-04T07:06:09.489Z,5.87
2018-08-04T07:08:51.677Z,5.87
2018-08-04T07:11:34.235Z,5.93
2018-08-04T07:14:15.587Z,8.17
2018-08-04T07:16:57.187Z,6.10
2018-08-04T07:19:39.867Z,6.10
2018-08-04T07:22:22.098Z,6.00
2018-08-04T07:25:03.349Z,5.43
2018-08-04T07:27:45.591Z,5.80
2018-08-04T07:30:28.100Z,5.40
2018-08-04T07:33:10.632Z,6.00
2018-08-04T07:35:52.512Z,5.90
2018-08-04T07:38:34.006Z,6.90
2018-08-04T07:41:15.663Z,5.70
2018-08-04T07:43:58.986Z,6.97
2018-08-04T07:46:41.359Z,10.50
2018-08-04T07:49:23.199Z,12.30
2018-08-04T07:52:04.223Z,13.40
2018-08-04T07:54:45.949Z,13.90
2018-08-04T07:57:27.653Z,12.50
2018-08-04T08:00:08.470Z,13.53
2018-08-04T08:02:50.542Z,13.10
2018-08-04T08:05:34.160Z,14.13
2018-08-04T08:08:17.352Z,14.13
2018-08-04T08:10:59.411Z,14.30
2018-08-04T08:13:41.272Z,13.60
2018-08-04T08:16:24.162Z,12.93
2018-08-04T08:19:07.673Z,12.30
2018-08-04T08:21:49.837Z,12.57
2018-08-04T08:24:32.269Z,12.43
2018-08-04T08:27:15.310Z,12.67
2018-08-04T08:29:57.181Z,11.97
2018-08-04T08:32:39.146Z,11.20
2018-08-04T08:35:20.728Z,11.50
2018-08-04T08:38:03.116Z,11.60
2018-08-04T08:40:44.426Z,12.77
2018-08-04T08:43:26.988Z,11.63
2018-08-04T08:46:08.789Z,12.43
2018-08-04T08:48:51.540Z,12.00
2018-08-04T08:51:33.584Z,11.73
2018-08-04T08:54:15.839Z,11.70
2018-08-04T08:56:57.124Z,12.30
2018-08-04T08:59:38.230Z,11.50
2018-08-04T09:02:19.021Z,11.50
2018-08-04T09:04:59.589Z,11.70
2018-08-04T09:07:40.763Z,11.27
2018-08-04T09:10:22.122Z,12.50
2018-08-04T09:13:03.479Z,11.17
2018-08-04T09:15:44.667Z,12.30
2018-08-04T09:18:25.543Z,12.20
2018-08-04T09:21:06.091Z,11.83
2018-08-04T09:23:47.296Z,11.83
2018-08-04T09:26:28.951Z,13.67
2018-08-04T09:29:10.465Z,11.87
2018-08-04T09:31:51.100Z,11.20
2018-08-04T09:34:31.745Z,11.57
2018-08-04T09:37:13.260Z,13.10
2018-08-04T09:39:54.177Z,12.20
2018-08-04T09:42:34.759Z,12.37
2018-08-04T09:45:15.549Z,11.30
2018-08-04T09:47:56.633Z,9.90
2018-08-04T09:50:37.393Z,9.90
2018-08-04T09:53:19.857Z,10.47
2018-08-04T09:56:01.226Z,10.87
2018-08-04T09:58:43.208Z,11.30
2018-08-04T10:01:41.345Z,11.83
2018-08-04T10:04:22.105Z,12.67
2018-08-04T10:07:03.345Z,10.90
2018-08-04T10:09:44.127Z,11.03
2018-08-04T10:12:25.847Z,11.67
2018-08-04T10:15:06.941Z,11.77
2018-08-04T10:17:47.759Z,10.87
2018-08-04T10:20:28.448Z,10.40
2018-08-04T10:23:09.432Z,12.47
2018-08-04T10:25:50.076Z,12.97
2018-08-04T10:28:30.716Z,13.13
2018-08-04T10:31:11.395Z,13.90
2018-08-04T10:33:52.278Z,13.40
2018-08-04T10:36:32.936Z,13.13
2018-08-04T10:39:14.015Z,12.40
2018-08-04T10:41:55.333Z,12.33
2018-08-04T10:44:36.069Z,13.30
2018-08-04T10:47:17.532Z,8.87
2018-08-04T10:49:58.241Z,8.30
2018-08-04T10:52:39.088Z,8.50
2018-08-04T10:55:19.885Z,7.47
2018-08-04T10:58:00.457Z,8.07
2018-08-04T11:00:41.105Z,10.33
2018-08-04T11:03:21.854Z,9.37
2018-08-04T11:06:02.458Z,8.53
2018-08-04T11:08:43.882Z,9.43
2018-08-04T11:11:25.133Z,9.27
2018-08-04T11:14:06.418Z,9.13
2018-08-04T11:16:47.640Z,7.40
2018-08-04T11:19:28.697Z,8.10
2018-08-04T11:22:09.344Z,7.30
2018-08-04T11:24:50.083Z,8.80
2018-08-04T11:27:31.396Z,9.20
2018-08-04T11:30:12.797Z,9.53
2018-08-04T11:32:53.536Z,10.70
2018-08-04T11:35:34.782Z,10.77
2018-08-04T11:38:16.322Z,10.57
2018-08-04T11:40:57.788Z,8.67
2018-08-04T11:43:38.522Z,9.93
2018-08-04T11:46:19.941Z,9.00
2018-08-04T11:49:01.066Z,9.93
2018-08-04T11:51:41.886Z,9.60
2018-08-04T11:54:22.837Z,9.57
2018-08-04T11:57:03.566Z,10.00
2018-08-04T11:59:44.422Z,9.80
2018-08-04T12:02:25.127Z,10.90
2018-08-04T12:05:05.741Z,10.37
2018-08-04T12:07:46.612Z,8.93
2018-08-04T12:10:27.237Z,9.00
2018-08-04T12:13:07.948Z,7.73
2018-08-04T12:15:49.917Z,8.90
2018-08-04T12:18:31.340Z,7.87
2018-08-04T12:21:12.384Z,9.00
2018-08-04T12:23:53.156Z,8.07
2018-08-04T12:26:33.973Z,7.27
2018-08-04T12:29:14.760Z,8.83
2018-08-04T12:31:55.561Z,8.67
2018-08-04T12:34:36.228Z,8.30
2018-08-04T12:37:17.152Z,7.67
2018-08-04T12:39:57.826Z,8.23
2018-08-04T12:42:38.633Z,7.93
2018-08-04T12:45:19.426Z,7.37
2018-08-04T12:48:00.324Z,6.80
2018-08-04T12:50:41.600Z,6.10
2018-08-04T12:53:22.915Z,5.73
2018-08-04T12:56:03.890Z,5.17
2018-08-04T12:58:45.005Z,5.00
2018-08-04T13:01:25.737Z,5.40
2018-08-04T13:04:07.197Z,4.67
2018-08-04T13:06:47.788Z,4.33
2018-08-04T13:09:29.249Z,4.30
2018-08-04T13:12:10.354Z,3.67
2018-08-04T13:14:51.133Z,3.97
2018-08-04T13:17:32.266Z,4.20
2018-08-04T13:20:12.992Z,4.90
2018-08-04T13:22:54.021Z,4.77
2018-08-04T13:25:34.688Z,4.90
2018-08-04T13:28:15.440Z,4.37
2018-08-04T13:30:56.192Z,4.30
2018-08-04T13:33:36.811Z,3.93
2018-08-04T13:36:17.761Z,3.37
2018-08-04T13:38:58.477Z,4.57
2018-08-04T13:41:40.003Z,4.87
2018-08-04T13:44:21.055Z,3.77
2018-08-04T13:47:02.003Z,4.47
2018-08-04T13:49:42.808Z,3.77
2018-08-04T13:52:23.935Z,4.57
2018-08-04T13:55:04.949Z,4.57
2018-08-04T13:57:45.637Z,5.83
2018-08-04T14:00:26.235Z,4.00
2018-08-04T14:03:07.560Z,4.37
2018-08-04T14:05:48.997Z,3.73
2018-08-04T14:08:29.844Z,4.80
2018-08-04T14:11:10.597Z,5.37
2018-08-04T14:13:51.871Z,4.23
2018-08-04T14:16:33.077Z,4.27
2018-08-04T14:19:14.672Z,4.00
2018-08-04T14:21:55.385Z,4.07
2018-08-04T14:24:36.021Z,4.03
2018-08-04T14:27:17.423Z,4.43
2018-08-04T14:29:58.610Z,5.03
2018-08-04T14:32:39.414Z,4.60
2018-08-04T14:35:20.297Z,4.10
2018-08-04T14:38:01.002Z,4.33
2018-08-04T14:40:41.978Z,3.93
2018-08-04T14:43:24.111Z,4.40
2018-08-04T14:46:06.612Z,4.93
2018-08-04T14:48:49.721Z,4.90
2018-08-04T14:51:31.699Z,5.37
2018-08-04T14:54:12.475Z,5.47
2018-08-04T14:56:55.964Z,5.33
2018-08-04T14:59:37.043Z,4.33
2018-08-04T15:02:18.487Z,4.90
2018-08-04T15:04:59.641Z,4.23
2018-08-04T15:07:41.163Z,4.77
2018-08-04T15:10:22.681Z,4.53
2018-08-04T15:13:03.936Z,4.30
2018-08-04T15:15:46.333Z,4.73
2018-08-04T15:18:26.934Z,5.60
2018-08-04T15:21:07.621Z,4.97
2018-08-04T15:23:49.166Z,5.87
2018-08-04T15:26:30.758Z,5.50
2018-08-04T15:29:12.959Z,4.80
2018-08-04T15:31:54.242Z,5.77
2018-08-04T15:34:35.095Z,5.93
2018-08-04T15:37:15.783Z,6.47
2018-08-04T15:39:56.663Z,6.50
2018-08-04T15:42:37.808Z,6.77
2018-08-04T15:45:18.523Z,6.63
2018-08-04T15:47:59.578Z,7.80
2018-08-04T15:50:40.220Z,9.23
2018-08-04T15:53:21.160Z,12.60
2018-08-04T15:56:01.826Z,14.50
2018-08-04T15:58:43.358Z,14.47
2018-08-04T16:01:24.542Z,14.53
2018-08-04T16:04:05.481Z,14.47
2018-08-04T16:06:46.253Z,12.67
2018-08-04T16:09:27.040Z,12.43
2018-08-04T16:12:07.902Z,13.53
2018-08-04T16:14:48.586Z,13.47
2018-08-04T16:17:29.591Z,15.43
2018-08-04T16:20:10.176Z,15.47
2018-08-04T16:22:51.363Z,14.53
2018-08-04T16:25:31.942Z,14.27
2018-08-04T16:28:12.865Z,13.33
2018-08-04T16:30:54.090Z,13.83
2018-08-04T16:33:35.386Z,13.40
2018-08-04T16:36:16.350Z,13.87
2018-08-04T16:38:57.844Z,13.77
2018-08-04T16:41:39.088Z,14.70
2018-08-04T16:44:20.613Z,13.80
2018-08-04T16:47:01.440Z,11.87
2018-08-04T16:49:42.099Z,13.00
2018-08-04T16:52:23.061Z,13.20
2018-08-04T16:55:03.818Z,13.13
2018-08-04T16:57:44.475Z,13.47
2018-08-04T17:00:26.075Z,12.23
2018-08-04T17:03:06.785Z,12.80
2018-08-04T17:05:47.665Z,14.03
2018-08-04T17:08:28.437Z,11.97
2018-08-04T17:11:09.444Z,10.77
2018-08-04T17:13:50.502Z,9.70
2018-08-04T17:16:31.934Z,10.30
2018-08-04T17:19:12.839Z,10.30
2018-08-04T17:21:53.881Z,11.50
2018-08-04T17:24:35.322Z,11.30
2018-08-04T17:27:16.414Z,9.90
2018-08-04T17:29:57.086Z,10.43
2018-08-04T17:32:38.393Z,10.40
2018-08-04T17:35:19.729Z,11.80
2018-08-04T17:38:00.562Z,9.00
2018-08-04T17:40:41.365Z,10.67
2018-08-04T17:43:22.694Z,10.20
2018-08-04T17:46:03.689Z,10.47
2018-08-04T17:48:45.059Z,11.07
2018-08-04T17:51:26.087Z,9.80
2018-08-04T17:54:06.842Z,10.60
2018-08-04T17:56:47.698Z,9.40
2018-08-04T17:59:28.689Z,9.30
2018-08-04T18:02:09.994Z,8.80
2018-08-04T18:04:51.042Z,9.67
2018-08-04T18:07:31.822Z,8.90
2018-08-04T18:10:12.394Z,9.33
2018-08-04T18:12:53.453Z,8.80
2018-08-04T18:15:35.006Z,9.13
2018-08-04T18:18:15.870Z,8.50
2018-08-04T18:20:56.548Z,6.90
2018-08-04T18:23:37.459Z,7.47
2018-08-04T18:26:18.444Z,7.23
2018-08-04T18:29:00.021Z,7.30
2018-08-04T18:31:41.049Z,6.60
2018-08-04T18:34:21.996Z,7.40
2018-08-04T18:37:02.697Z,7.13
2018-08-04T18:39:43.660Z,6.93
2018-08-04T18:42:25.138Z,6.73
2018-08-04T18:45:05.706Z,6.60
2018-08-04T18:47:46.478Z,6.13
2018-08-04T18:50:27.634Z,7.07
2018-08-04T18:53:09.262Z,6.23
2018-08-04T18:55:50.053Z,7.10
2018-08-04T18:58:30.804Z,6.57
2018-08-04T19:01:11.484Z,6.87
2018-08-04T19:03:52.385Z,5.60
2018-08-04T19:06:34.354Z,6.47
2018-08-04T19:09:16.023Z,6.23
2018-08-04T19:11:58.491Z,7.20
2018-08-04T19:14:40.633Z,6.13
2018-08-04T19:17:22.337Z,5.70
2018-08-04T19:20:03.629Z,7.00
2018-08-04T19:22:44.757Z,6.10
2018-08-04T19:25:25.992Z,7.17
2018-08-04T19:28:06.795Z,7.20
2018-08-04T19:30:47.533Z,7.10
2018-08-04T19:33:28.248Z,6.60
2018-08-04T19:36:09.189Z,6.80
2018-08-04T19:38:50.146Z,6.30
2018-08-04T19:41:31.102Z,7.23
2018-08-04T19:44:11.796Z,6.00
2018-08-04T19:46:52.530Z,6.30
2018-08-04T19:49:33.193Z,7.13
2018-08-04T19:52:14.284Z,6.90
2018-08-04T19:54:55.522Z,6.40
2018-08-04T19:57:36.067Z,6.60
2018-08-04T20:00:16.937Z,6.73
2018-08-04T20:02:58.039Z,7.03
2018-08-04T20:05:38.790Z,6.60
2018-08-04T20:08:19.493Z,6.80
2018-08-04T20:11:00.273Z,6.67
2018-08-04T20:13:41.763Z,6.13
2018-08-04T20:16:22.442Z,7.03
2018-08-04T20:19:03.389Z,7.33
2018-08-04T20:21:44.237Z,6.97
2018-08-04T20:24:25.121Z,7.10
2018-08-04T20:27:06.058Z,7.33
2018-08-04T20:29:46.662Z,6.97
2018-08-04T20:32:27.535Z,6.53
2018-08-04T20:35:08.247Z,6.50
2018-08-04T20:37:49.065Z,6.77
2018-08-04T20:40:30.021Z,7.53
2018-08-04T20:43:10.861Z,7.10
2018-08-04T20:45:51.719Z,7.30
2018-08-04T20:48:32.721Z,7.40
2018-08-04T20:51:13.514Z,8.00
2018-08-04T20:53:54.254Z,8.10
2018-08-04T20:56:35.302Z,6.80
2018-08-04T20:59:17.233Z,7.00
2018-08-04T21:01:58.192Z,6.50
2018-08-04T21:04:39.405Z,7.50
2018-08-04T21:07:21.049Z,7.43
2018-08-04T21:10:01.635Z,7.80
2018-08-04T21:12:43.018Z,8.87
2018-08-04T21:15:24.019Z,8.10
2018-08-04T21:18:04.929Z,8.87
2018-08-04T21:20:45.951Z,8.20
2018-08-04T21:23:27.497Z,7.83
2018-08-04T21:26:08.169Z,6.77
2018-08-04T21:28:48.979Z,7.00
2018-08-04T21:31:30.104Z,7.70
2018-08-04T21:34:12.345Z,6.40
2018-08-04T21:36:53.414Z,9.33
2018-08-04T21:39:34.201Z,9.03
2018-08-04T21:42:14.969Z,7.87
2018-08-04T21:44:55.571Z,7.40
2018-08-04T21:47:36.096Z,7.27
2018-08-04T21:50:16.655Z,7.30
2018-08-04T21:52:57.475Z,6.57
2018-08-04T21:55:38.577Z,7.63
2018-08-04T21:58:19.457Z,7.33
2018-08-04T22:01:05.061Z,8.10
2018-08-04T22:03:45.892Z,8.43
2018-08-04T22:06:26.788Z,8.30
2018-08-04T22:09:08.292Z,8.30
2018-08-04T22:11:48.967Z,8.33
2018-08-04T22:14:29.746Z,7.47
2018-08-04T22:17:10.393Z,8.00
2018-08-04T22:19:51.878Z,7.80
2018-08-04T22:22:32.902Z,7.70
2018-08-04T22:25:14.978Z,8.43
2018-08-04T22:27:56.904Z,8.50
2018-08-04T22:30:38.108Z,9.80
2018-08-04T22:33:18.953Z,9.13
2018-08-04T22:35:59.924Z,8.73
2018-08-04T22:38:41.396Z,9.90
2018-08-04T22:41:22.401Z,8.97
2018-08-04T22:44:03.238Z,7.83
2018-08-04T22:46:44.220Z,5.90
2018-08-04T22:49:25.056Z,7.17
2018-08-04T22:52:06.053Z,8.33
2018-08-04T22:54:46.622Z,8.57
2018-08-04T22:57:27.386Z,8.73
2018-08-04T23:00:08.062Z,7.60
2018-08-04T23:02:48.922Z,9.13
2018-08-04T23:05:29.849Z,8.20
2018-08-04T23:08:11.341Z,7.40
2018-08-04T23:10:52.605Z,7.97
2018-08-04T23:13:33.236Z,8.50
2018-08-04T23:16:13.921Z,8.33
2018-08-04T23:18:54.722Z,8.53
2018-08-04T23:21:35.388Z,7.20
2018-08-04T23:24:15.985Z,6.80
2018-08-04T23:26:56.785Z,8.77
2018-08-04T23:29:37.514Z,7.33
2018-08-04T23:32:18.453Z,6.57
2018-08-04T23:34:58.998Z,6.87
2018-08-04T23:37:39.693Z,6.70
2018-08-04T23:40:20.680Z,7.23
2018-08-04T23:43:01.837Z,7.00
2018-08-04T23:45:42.461Z,8.73
2018-08-04T23:48:23.169Z,8.60
2018-08-04T23:51:03.744Z,8.00
2018-08-04T23:53:44.455Z,7.53
2018-08-04T23:56:25.517Z,6.27
2018-08-04T23:59:06.917Z,6.20
